createdAt,value
2022-10-13T00:00:44.394Z,19.20
2022-10-13T00:03:47.389Z,19.20
2022-10-13T00:11:28.386Z,19.20
2022-10-13T00:14:30.885Z,19.20
2022-10-13T00:17:33.788Z,19.20
2022-10-13T00:20:36.417Z,19.20
2022-10-13T00:23:39.250Z,19.20
2022-10-13T00:26:41.568Z,19.20
2022-10-13T00:29:47.178Z,19.20
2022-10-13T00:32:49.347Z,19.20
2022-10-13T00:35:51.473Z,19.10
2022-10-13T00:38:54.849Z,19.20
2022-10-13T00:42:00.909Z,19.20
2022-10-13T00:45:27.273Z,19.10
2022-10-13T00:48:31.225Z,19.10
2022-10-13T00:51:39.594Z,19.10
2022-10-13T00:54:42.059Z,19.10
2022-10-13T00:57:48.487Z,19.10
2022-10-13T01:00:52.389Z,19.20
2022-10-13T01:03:54.584Z,19.10
2022-10-13T01:06:57.361Z,19.10
2022-10-13T01:10:01.234Z,19.10
2022-10-13T01:13:25.541Z,19.10
2022-10-13T01:16:41.006Z,19.10
2022-10-13T01:20:02.565Z,19.10
2022-10-13T01:23:12.546Z,19.10
2022-10-13T01:26:55.595Z,19.10
2022-10-13T01:34:31.866Z,19.10
2022-10-13T01:37:36.647Z,19.10
2022-10-13T01:40:50.068Z,19.10
2022-10-13T01:43:56.721Z,19.10
2022-10-13T01:47:00.876Z,19.10
2022-10-13T01:50:04.738Z,19.10
2022-10-13T01:53:07.486Z,19.10
2022-10-13T01:56:09.599Z,19.10
2022-10-13T01:59:15.848Z,19.10
2022-10-13T02:02:34.967Z,19.10
2022-10-13T02:05:59.836Z,19.10
2022-10-13T02:09:23.874Z,19.10
2022-10-13T02:12:34.790Z,19.00
2022-10-13T02:15:46.274Z,19.10
2022-10-13T02:18:48.755Z,19.00
2022-10-13T02:21:53.647Z,19.00
2022-10-13T02:24:56.161Z,19.00
2022-10-13T02:28:00.117Z,19.00
2022-10-13T02:31:08.234Z,19.00
2022-10-13T02:34:11.637Z,19.00
2022-10-13T02:37:14.155Z,19.00
2022-10-13T02:40:16.368Z,19.00
2022-10-13T02:43:37.113Z,19.00
2022-10-13T02:47:16.689Z,19.00
2022-10-13T02:50:19.026Z,19.00
2022-10-13T02:53:21.252Z,19.00
2022-10-13T02:56:23.458Z,19.00
2022-10-13T02:59:25.665Z,19.00
2022-10-13T03:02:28.892Z,19.00
2022-10-13T03:05:30.994Z,19.00
2022-10-13T03:08:34.915Z,19.00
2022-10-13T03:11:37.087Z,19.00
2022-10-13T03:14:39.245Z,19.00
2022-10-13T03:17:41.400Z,19.00
2022-10-13T03:20:43.649Z,19.00
2022-10-13T03:23:45.922Z,19.00
2022-10-13T03:26:48.143Z,18.90
2022-10-13T03:29:51.670Z,18.90
2022-10-13T03:32:53.795Z,18.90
2022-10-13T03:35:59.765Z,18.90
2022-10-13T03:39:02.303Z,18.90
2022-10-13T03:42:04.518Z,18.90
2022-10-13T03:45:07.605Z,18.90
2022-10-13T03:48:11.483Z,18.90
2022-10-13T03:51:19.575Z,18.90
2022-10-13T03:54:24.383Z,18.90
2022-10-13T03:57:28.737Z,18.90
2022-10-13T04:00:30.956Z,18.90
2022-10-13T04:03:34.217Z,18.90
2022-10-13T04:06:36.356Z,18.90
2022-10-13T04:09:38.539Z,18.90
2022-10-13T04:12:40.667Z,18.90
2022-10-13T04:15:42.793Z,18.90
2022-10-13T04:18:45.871Z,18.90
2022-10-13T04:21:48.045Z,18.90
2022-10-13T04:24:50.243Z,18.90
2022-10-13T04:27:52.431Z,18.90
2022-10-13T04:30:54.539Z,18.80
2022-10-13T04:33:57.642Z,18.80
2022-10-13T04:36:59.715Z,18.80
2022-10-13T04:40:01.914Z,18.80
2022-10-13T04:43:04.044Z,18.80
2022-10-13T04:46:19.111Z,18.80
2022-10-13T04:49:21.386Z,18.80
2022-10-13T04:52:23.534Z,18.80
2022-10-13T04:55:28.808Z,18.80
2022-10-13T04:58:31.564Z,18.80
2022-10-13T05:01:36.514Z,18.80
2022-10-13T05:04:41.317Z,18.80
2022-10-13T05:07:43.679Z,18.80
2022-10-13T05:10:58.543Z,18.80
2022-10-13T05:14:01.938Z,18.70
2022-10-13T05:17:04.074Z,18.80
2022-10-13T05:20:06.689Z,18.70
2022-10-13T05:23:08.942Z,18.80
2022-10-13T05:26:14.453Z,18.80
2022-10-13T05:29:18.284Z,18.80
2022-10-13T05:32:20.577Z,18.80
2022-10-13T05:35:23.181Z,18.80
2022-10-13T05:38:26.132Z,18.70
2022-10-13T05:41:29.607Z,18.70
2022-10-13T05:44:31.741Z,18.70
2022-10-13T05:47:33.862Z,18.70
2022-10-13T05:50:36.130Z,18.70
2022-10-13T05:53:46.754Z,18.70
2022-10-13T05:57:15.629Z,18.70
2022-10-13T06:00:19.798Z,18.70
2022-10-13T06:03:23.381Z,18.70
2022-10-13T06:06:29.115Z,18.70
2022-10-13T06:09:37.951Z,18.70
2022-10-13T06:12:40.273Z,18.70
2022-10-13T06:15:42.384Z,18.70
2022-10-13T06:18:44.943Z,18.70
2022-10-13T06:21:47.046Z,18.70
2022-10-13T06:24:49.256Z,18.60
2022-10-13T06:27:51.464Z,18.70
2022-10-13T06:30:54.812Z,18.60
2022-10-13T06:33:58.627Z,18.60
2022-10-13T06:37:00.828Z,18.60
2022-10-13T06:40:03.198Z,18.60
2022-10-13T06:43:05.338Z,18.60
2022-10-13T06:46:15.368Z,18.60
2022-10-13T06:49:18.210Z,18.60
2022-10-13T06:52:20.648Z,18.60
2022-10-13T06:55:23.460Z,18.60
2022-10-13T06:58:26.224Z,18.60
2022-10-13T07:01:28.381Z,18.60
2022-10-13T07:04:30.560Z,18.60
2022-10-13T07:07:34.291Z,18.60
2022-10-13T07:10:38.666Z,18.60
2022-10-13T07:13:46.206Z,18.60
2022-10-13T07:16:50.547Z,18.60
2022-10-13T07:19:57.090Z,18.60
2022-10-13T07:23:00.380Z,18.60
2022-10-13T07:26:06.690Z,18.60
2022-10-13T07:29:08.875Z,18.60
2022-10-13T07:32:11.030Z,18.60
2022-10-13T07:35:13.189Z,18.60
2022-10-13T07:38:15.324Z,18.60
2022-10-13T07:41:22.314Z,18.60
2022-10-13T07:44:25.908Z,18.60
2022-10-13T07:47:28.910Z,18.60
2022-10-13T07:50:31.277Z,18.60
2022-10-13T07:53:35.450Z,18.60
2022-10-13T07:56:37.633Z,18.60
2022-10-13T07:59:39.966Z,18.60
2022-10-13T08:02:45.202Z,18.60
2022-10-13T08:05:47.355Z,18.60
2022-10-13T08:08:49.563Z,18.60
2022-10-13T08:11:52.315Z,18.60
2022-10-13T08:14:54.412Z,18.60
2022-10-13T08:17:56.573Z,18.60
2022-10-13T08:24:25.186Z,18.60
2022-10-13T08:27:42.243Z,18.60
2022-10-13T08:30:52.000Z,18.60
2022-10-13T08:33:54.278Z,18.60
2022-10-13T08:36:57.424Z,18.60
2022-10-13T08:39:59.513Z,18.60
2022-10-13T08:43:09.357Z,18.60
2022-10-13T08:46:14.197Z,18.60
2022-10-13T08:49:17.309Z,18.60
2022-10-13T08:52:25.868Z,18.60
2022-10-13T08:55:43.770Z,18.60
2022-10-13T08:58:47.454Z,18.60
2022-10-13T09:01:54.445Z,18.60
2022-10-13T09:05:01.847Z,18.60
2022-10-13T09:08:11.624Z,18.60
2022-10-13T09:11:14.348Z,18.60
2022-10-13T09:14:25.384Z,18.60
2022-10-13T09:17:30.117Z,18.60
2022-10-13T09:20:32.381Z,18.70
2022-10-13T09:23:38.212Z,18.60
2022-10-13T09:26:45.757Z,18.60
2022-10-13T09:29:47.961Z,18.70
2022-10-13T09:32:50.173Z,18.70
2022-10-13T09:36:02.334Z,18.60
2022-10-13T09:39:06.667Z,18.60
2022-10-13T09:42:25.380Z,18.70
2022-10-13T09:45:30.495Z,18.60
2022-10-13T09:48:36.728Z,18.70
2022-10-13T09:51:44.990Z,18.70
2022-10-13T09:54:58.007Z,18.70
2022-10-13T09:58:26.372Z,18.70
2022-10-13T10:01:34.275Z,18.70
2022-10-13T10:04:43.084Z,18.70
2022-10-13T10:07:45.446Z,18.70
2022-10-13T10:10:48.231Z,18.70
2022-10-13T10:13:52.682Z,18.70
2022-10-13T10:17:32.662Z,18.70
2022-10-13T10:20:45.808Z,18.70
2022-10-13T10:23:51.763Z,18.80
2022-10-13T10:27:06.233Z,18.70
2022-10-13T10:30:18.064Z,18.70
2022-10-13T10:33:45.268Z,18.70
2022-10-13T10:37:15.419Z,18.70
2022-10-13T10:40:24.246Z,18.70
2022-10-13T10:43:38.550Z,18.80
2022-10-13T10:46:51.035Z,18.80
2022-10-13T10:50:00.311Z,18.80
2022-10-13T10:53:16.256Z,18.80
2022-10-13T10:56:33.761Z,18.80
2022-10-13T11:00:06.234Z,18.80
2022-10-13T11:03:27.888Z,18.80
2022-10-13T11:06:38.078Z,18.80
2022-10-13T11:09:42.968Z,18.80
2022-10-13T11:13:15.283Z,18.80
2022-10-13T11:16:58.617Z,18.80
2022-10-13T11:20:00.888Z,18.80
2022-10-13T11:23:02.973Z,18.80
2022-10-13T11:26:31.383Z,18.80
2022-10-13T11:29:58.058Z,18.80
2022-10-13T11:33:09.214Z,18.80
2022-10-13T11:36:30.366Z,18.80
2022-10-13T11:39:59.620Z,18.80
2022-10-13T11:43:35.423Z,18.80
2022-10-13T11:46:56.448Z,18.80
2022-10-13T11:50:17.340Z,18.80
2022-10-13T11:53:23.919Z,18.80
2022-10-13T11:56:39.609Z,18.80
2022-10-13T11:59:47.622Z,18.80
2022-10-13T12:02:52.647Z,18.90
2022-10-13T12:06:02.036Z,18.80
2022-10-13T12:09:20.110Z,18.80
2022-10-13T12:12:23.824Z,18.80
2022-10-13T12:15:36.207Z,18.90
2022-10-13T12:18:41.037Z,18.80
2022-10-13T12:21:51.876Z,18.90
2022-10-13T12:25:06.109Z,18.90
2022-10-13T12:28:19.273Z,18.90
2022-10-13T12:31:30.075Z,18.90
2022-10-13T12:34:36.088Z,18.90
2022-10-13T12:37:38.470Z,18.90
2022-10-13T12:40:40.801Z,18.90
2022-10-13T12:43:43.665Z,18.90
2022-10-13T12:46:59.116Z,18.90
2022-10-13T12:50:23.302Z,18.90
2022-10-13T12:53:29.255Z,18.90
2022-10-13T12:56:33.216Z,18.90
2022-10-13T12:59:41.778Z,18.90
2022-10-13T13:02:52.092Z,18.90
2022-10-13T13:06:13.812Z,18.90
2022-10-13T13:09:22.362Z,18.90
2022-10-13T13:12:28.276Z,18.90
2022-10-13T13:15:38.502Z,18.90
2022-10-13T13:18:49.577Z,18.90
2022-10-13T13:25:15.574Z,18.90
2022-10-13T13:28:17.817Z,18.90
2022-10-13T13:31:24.921Z,18.90
2022-10-13T13:34:27.424Z,18.90
2022-10-13T13:37:34.782Z,18.90
2022-10-13T13:40:36.991Z,19.00
2022-10-13T13:43:40.452Z,18.90
2022-10-13T13:46:44.005Z,18.90
2022-10-13T13:49:47.043Z,18.90
2022-10-13T13:52:49.106Z,18.90
2022-10-13T13:55:51.929Z,18.90
2022-10-13T13:58:54.194Z,18.90
2022-10-13T14:01:56.561Z,18.90
2022-10-13T14:05:01.789Z,18.90
2022-10-13T14:08:04.793Z,19.00
2022-10-13T14:11:07.737Z,18.90
2022-10-13T14:14:09.998Z,19.00
2022-10-13T14:17:12.084Z,18.90
2022-10-13T14:20:14.388Z,19.00
2022-10-13T14:23:16.744Z,19.00
2022-10-13T14:26:19.002Z,19.00
2022-10-13T14:29:21.429Z,19.00
2022-10-13T14:32:23.862Z,19.00
2022-10-13T14:35:26.395Z,19.00
2022-10-13T14:38:28.772Z,19.00
2022-10-13T14:41:31.000Z,19.00
2022-10-13T14:44:33.174Z,19.00
2022-10-13T14:47:35.334Z,19.00
2022-10-13T14:50:38.035Z,19.00
2022-10-13T14:53:42.405Z,19.00
2022-10-13T14:56:44.993Z,19.00
2022-10-13T14:59:47.616Z,19.00
2022-10-13T15:02:49.770Z,19.00
2022-10-13T15:05:52.117Z,19.00
2022-10-13T15:08:58.822Z,19.10
2022-10-13T15:12:01.022Z,19.10
2022-10-13T15:15:05.853Z,19.10
2022-10-13T15:18:07.976Z,19.10
2022-10-13T15:21:10.213Z,19.10
2022-10-13T15:24:12.801Z,19.10
2022-10-13T15:27:17.631Z,19.10
2022-10-13T15:30:19.915Z,19.10
2022-10-13T15:33:22.980Z,19.10
2022-10-13T15:36:25.330Z,19.10
2022-10-13T15:39:27.465Z,19.10
2022-10-13T15:42:29.543Z,19.10
2022-10-13T15:45:31.715Z,19.10
2022-10-13T15:48:34.583Z,19.20
2022-10-13T15:51:36.739Z,19.20
2022-10-13T15:54:38.928Z,19.20
2022-10-13T15:57:41.101Z,19.20
2022-10-13T16:00:44.293Z,19.20
2022-10-13T16:03:46.631Z,19.20
2022-10-13T16:06:48.917Z,19.30
2022-10-13T16:09:51.072Z,19.30
2022-10-13T16:12:53.615Z,19.30
2022-10-13T16:15:59.607Z,19.30
2022-10-13T16:19:01.798Z,19.30
2022-10-13T16:22:04.176Z,19.30
2022-10-13T16:25:06.770Z,19.30
2022-10-13T16:28:08.916Z,19.30
2022-10-13T16:31:14.338Z,19.30
2022-10-13T16:34:17.638Z,19.30
2022-10-13T16:37:20.704Z,19.30
2022-10-13T16:40:23.169Z,19.30
2022-10-13T16:43:25.424Z,19.30
2022-10-13T16:46:29.005Z,19.30
2022-10-13T16:49:31.774Z,19.30
2022-10-13T16:52:34.094Z,19.30
2022-10-13T16:55:40.104Z,19.30
2022-10-13T16:58:45.319Z,19.30
2022-10-13T17:01:48.580Z,19.30
2022-10-13T17:04:50.733Z,19.30
2022-10-13T17:07:53.029Z,19.30
2022-10-13T17:10:58.229Z,19.30
2022-10-13T17:14:02.262Z,19.40
2022-10-13T17:17:07.554Z,19.30
2022-10-13T17:20:12.343Z,19.40
2022-10-13T17:23:17.107Z,19.30
2022-10-13T17:26:20.912Z,19.30
2022-10-13T17:29:23.008Z,19.30
2022-10-13T17:32:28.839Z,19.30
2022-10-13T17:35:31.714Z,19.40
2022-10-13T17:38:34.837Z,19.40
2022-10-13T17:41:37.861Z,19.40
2022-10-13T17:44:40.175Z,19.40
2022-10-13T17:47:49.368Z,19.40
2022-10-13T17:50:51.554Z,19.40
2022-10-13T17:53:55.391Z,19.40
2022-10-13T17:56:57.601Z,19.40
2022-10-13T17:59:59.706Z,19.40
2022-10-13T18:03:01.802Z,19.40
2022-10-13T18:06:07.557Z,19.40
2022-10-13T18:09:18.382Z,19.40
2022-10-13T18:12:20.651Z,19.40
2022-10-13T18:15:22.796Z,19.40
2022-10-13T18:18:25.091Z,19.40
2022-10-13T18:21:27.336Z,19.40
2022-10-13T18:24:29.580Z,19.40
2022-10-13T18:27:31.832Z,19.40
2022-10-13T18:30:34.186Z,19.40
2022-10-13T18:33:36.724Z,19.40
2022-10-13T18:36:47.516Z,19.40
2022-10-13T18:39:49.806Z,19.40
2022-10-13T18:42:54.844Z,19.40
2022-10-13T18:46:01.625Z,19.40
2022-10-13T18:49:10.439Z,19.40
2022-10-13T18:52:14.174Z,19.40
2022-10-13T18:55:16.343Z,19.40
2022-10-13T18:58:18.642Z,19.40
2022-10-13T19:01:23.172Z,19.40
2022-10-13T19:04:26.327Z,19.40
2022-10-13T19:07:29.490Z,19.40
2022-10-13T19:10:33.153Z,19.40
2022-10-13T19:13:35.340Z,19.40
2022-10-13T19:16:40.137Z,19.40
2022-10-13T19:19:42.983Z,19.40
2022-10-13T19:22:45.163Z,19.40
2022-10-13T19:25:51.073Z,19.40
2022-10-13T19:28:58.505Z,19.40
2022-10-13T19:32:00.726Z,19.40
2022-10-13T19:35:02.962Z,19.40
2022-10-13T19:38:05.162Z,19.40
2022-10-13T19:41:07.511Z,19.40
2022-10-13T19:44:09.645Z,19.40
2022-10-13T19:47:14.629Z,19.40
2022-10-13T19:50:16.835Z,19.40
2022-10-13T19:53:19.707Z,19.40
2022-10-13T19:56:27.941Z,19.40
2022-10-13T19:59:30.100Z,19.40
2022-10-13T20:02:32.193Z,19.40
2022-10-13T20:05:36.933Z,19.40
2022-10-13T20:08:39.667Z,19.40
2022-10-13T20:11:45.702Z,19.40
2022-10-13T20:14:48.000Z,19.40
2022-10-13T20:17:50.338Z,19.30
2022-10-13T20:20:52.510Z,19.30
2022-10-13T20:23:54.748Z,19.30
2022-10-13T20:26:56.864Z,19.40
2022-10-13T20:30:00.018Z,19.30
2022-10-13T20:33:03.016Z,19.30
2022-10-13T20:36:08.285Z,19.30
2022-10-13T20:39:10.471Z,19.30
2022-10-13T20:42:14.323Z,19.30
2022-10-13T20:45:16.459Z,19.30
2022-10-13T20:48:18.698Z,19.30
2022-10-13T20:51:22.893Z,19.30
2022-10-13T20:54:25.076Z,19.30
2022-10-13T20:57:27.277Z,19.30
2022-10-13T21:00:29.779Z,19.30
2022-10-13T21:03:32.187Z,19.30
2022-10-13T21:06:41.173Z,19.30
2022-10-13T21:09:43.292Z,19.30
2022-10-13T21:12:45.388Z,19.30
2022-10-13T21:15:47.980Z,19.30
2022-10-13T21:18:56.809Z,19.30
2022-10-13T21:21:59.263Z,19.20
2022-10-13T21:25:01.412Z,19.30
2022-10-13T21:28:04.394Z,19.30
2022-10-13T21:31:12.667Z,19.20
2022-10-13T21:34:15.070Z,19.30
2022-10-13T21:37:17.242Z,19.30
2022-10-13T21:40:19.354Z,19.30
2022-10-13T21:43:21.695Z,19.30
2022-10-13T21:46:27.129Z,19.30
2022-10-13T21:49:29.221Z,19.20
2022-10-13T21:52:34.266Z,19.30
2022-10-13T21:55:36.436Z,19.20
2022-10-13T21:58:39.340Z,19.20
2022-10-13T22:01:42.412Z,19.20
2022-10-13T22:04:47.175Z,19.20
2022-10-13T22:07:49.493Z,19.20
2022-10-13T22:10:56.739Z,19.20
2022-10-13T22:13:59.416Z,19.20
2022-10-13T22:17:01.613Z,19.20
2022-10-13T22:20:04.234Z,19.20
2022-10-13T22:23:06.352Z,19.20
2022-10-13T22:26:10.330Z,19.20
2022-10-13T22:29:15.152Z,19.20
2022-10-13T22:32:18.133Z,19.20
2022-10-13T22:35:20.274Z,19.20
2022-10-13T22:38:22.488Z,19.20
2022-10-13T22:41:24.618Z,19.20
2022-10-13T22:44:26.857Z,19.20
2022-10-13T22:47:29.042Z,19.20
2022-10-13T22:50:31.201Z,19.20
2022-10-13T22:53:34.422Z,19.20
2022-10-13T22:56:36.557Z,19.20
2022-10-13T22:59:38.676Z,19.20
2022-10-13T23:02:40.786Z,19.20
2022-10-13T23:05:46.245Z,19.10
2022-10-13T23:08:49.634Z,19.20
2022-10-13T23:11:53.346Z,19.10
2022-10-13T23:15:00.319Z,19.10
2022-10-13T23:18:02.480Z,19.10
2022-10-13T23:21:09.498Z,19.10
2022-10-13T23:24:12.329Z,19.10
2022-10-13T23:27:14.613Z,19.10
2022-10-13T23:30:16.830Z,19.10
2022-10-13T23:33:18.908Z,19.10
2022-10-13T23:36:24.588Z,19.10
2022-10-13T23:39:29.768Z,19.10
2022-10-13T23:42:31.959Z,19.10
2022-10-13T23:45:34.129Z,19.10
2022-10-13T23:48:36.884Z,19.10
2022-10-13T23:51:39.464Z,19.10
2022-10-13T23:54:41.645Z,19.10
2022-10-13T23:57:44.794Z,19.10
